Time;durP1;ratioP1;P1;durP2;ratioP2;P2;SDS_P1;SDS_P2;PMS_P1;PMS_P2;Temp;Humidity;BMP_temperature;BMP_pressure;BME280_temperature;BME280_humidity;BME280_pressure;Samples;Min_cycle;Max_cycle;Signal;HPM_P1;HPM_P2
2020/12/29 09:03:53;;;;;;;14.53;12.05;;;;;;;2.85;91.23;96757.49;1866013;74;23936;-65
2020/12/29 09:06:20;;;;;;;16.10;11.83;;;;;;;2.82;91.19;96762.02;1694239;80;1922756;-62
2020/12/29 09:08:47;;;;;;;17.35;11.95;;;;;;;2.82;91.21;96756.88;1715075;82;21205;-63
2020/12/29 09:11:15;;;;;;;16.37;12.25;;;;;;;2.81;91.17;96750.89;1719863;82;20988;-64
2020/12/29 09:14:03;;;;;;;16.02;11.90;;;;;;;2.82;91.20;96751.72;1721545;82;21597;-64
2020/12/29 09:16:32;;;;;;;14.85;11.33;;;;;;;2.80;91.20;96754.41;1723298;82;21119;-63
2020/12/29 09:18:59;;;;;;;15.70;11.43;;;;;;;2.80;91.13;96751.83;1722830;82;21008;-63
2020/12/29 09:21:27;;;;;;;20.43;12.03;;;;;;;2.78;91.12;96745.94;1723196;82;21151;-62
2020/12/29 09:24:05;;;;;;;15.58;11.30;;;;;;;2.78;91.10;96743.36;1723233;83;21584;-62
2020/12/29 09:26:34;;;;;;;16.52;11.43;;;;;;;2.78;91.09;96743.36;1720721;82;21794;-64
2020/12/29 09:29:08;;;;;;;16.07;10.78;;;;;;;2.78;91.09;96748.52;1696313;83;21229;-64
2020/12/29 09:31:38;;;;;;;18.65;12.25;;;;;;;2.78;91.09;96742.55;1716643;82;21229;-63
2020/12/29 09:34:06;;;;;;;15.95;11.28;;;;;;;2.78;91.07;96743.36;1722973;82;23580;-63
2020/12/29 09:36:36;;;;;;;18.73;13.38;;;;;;;2.78;91.06;96742.08;1722761;82;21644;-64
2020/12/29 09:39:03;;;;;;;15.30;10.98;;;;;;;2.79;91.05;96737.27;1711671;82;21060;-64
2020/12/29 09:41:30;;;;;;;16.37;10.60;;;;;;;2.80;91.06;96735.08;1722184;82;21181;-64
2020/12/29 09:43:57;;;;;;;14.75;9.50;;;;;;;2.83;91.10;96733.59;1724084;82;21047;-63
2020/12/29 09:46:37;;;;;;;12.80;9.10;;;;;;;2.84;91.08;96731.84;1724435;82;21722;-63
2020/12/29 09:49:17;;;;;;;18.27;11.50;;;;;;;2.88;91.14;96731.52;1818673;76;22728;-64
2020/12/29 09:51:44;;;;;;;19.20;11.93;;;;;;;2.86;91.13;96728.71;1790930;77;20989;-65
2020/12/29 09:54:12;;;;;;;24.07;13.95;;;;;;;2.87;91.10;96727.31;1796087;77;21829;-65
2020/12/29 09:56:41;;;;;;;26.65;15.85;;;;;;;2.89;91.10;96724.18;1794210;79;21028;-65
2020/12/29 09:59:11;;;;;;;23.47;15.25;;;;;;;2.90;91.08;96716.80;1794471;79;21037;-65
2020/12/29 10:01:38;;;;;;;25.30;16.25;;;;;;;2.90;91.11;96714.22;1798522;79;21573;-65
2020/12/29 10:04:10;;;;;;;26.25;15.58;;;;;;;2.95;91.14;96715.70;1791203;77;21022;-64
2020/12/29 10:06:39;;;;;;;20.43;14.47;;;;;;;2.97;91.13;96720.27;1801596;77;21205;-65
2020/12/29 10:09:11;;;;;;;21.68;14.33;;;;;;;2.99;91.18;96704.25;1790221;78;21084;-65
2020/12/29 10:11:40;;;;;;;21.42;13.58;;;;;;;3.00;91.13;96709.78;1795283;77;21024;-65
2020/12/29 10:14:07;;;;;;;23.50;14.38;;;;;;;3.03;91.25;96700.56;1793465;77;21119;-64
2020/12/29 10:16:34;;;;;;;21.10;13.70;;;;;;;3.08;91.25;96703.64;1791455;77;21155;-64
2020/12/29 10:19:01;;;;;;;25.55;15.25;;;;;;;3.12;91.31;96698.66;1792968;78;22330;-64
2020/12/29 10:21:30;;;;;;;25.72;17.25;;;;;;;3.18;91.30;96696.15;1787001;79;21107;-65
2020/12/29 10:23:57;;;;;;;17.55;12.78;;;;;;;3.26;91.33;96702.45;1794921;77;21013;-64
2020/12/29 10:26:24;;;;;;;24.55;15.75;;;;;;;3.34;91.29;96700.19;1799639;77;21692;-64
2020/12/29 10:28:59;;;;;;;19.27;12.80;;;;;;;3.43;91.26;96703.09;1790733;79;21175;-65
2020/12/29 10:31:27;;;;;;;22.13;14.93;;;;;;;3.47;91.17;96705.81;1794953;79;21273;-65
2020/12/29 10:33:55;;;;;;;17.15;12.55;;;;;;;3.51;91.14;96704.23;1779346;79;21585;-65
2020/12/29 10:36:22;;;;;;;21.80;14.55;;;;;;;3.57;91.12;96695.25;1797189;77;20973;-65
2020/12/29 10:38:50;;;;;;;20.32;12.82;;;;;;;3.60;91.03;96689.88;1794799;77;21197;-65
2020/12/29 10:41:21;;;;;;;15.08;10.72;;;;;;;3.64;91.06;96691.34;1801340;77;21514;-65
2020/12/29 10:43:51;;;;;;;15.83;11.08;;;;;;;3.51;90.91;96659.55;1796242;77;21790;-65
2020/12/29 10:46:22;;;;;;;19.20;12.03;;;;;;;3.68;90.92;96685.03;1798751;77;21142;-64
2020/12/29 10:48:52;;;;;;;17.20;11.60;;;;;;;3.70;90.90;96688.34;1741229;80;21202;-65
2020/12/29 14:22:34;;;;;;;10.25;5.92;;;;;;;2.22;90.53;96895.75;1765657;79;22796;-64
2020/12/29 14:25:02;;;;;;;8.13;6.25;;;;;;;2.14;90.57;96904.38;1729840;81;21083;-64
2020/12/29 14:27:29;;;;;;;8.35;5.78;;;;;;;2.12;90.60;96919.07;1729577;81;21650;-65
2020/12/29 14:29:56;;;;;;;9.23;5.55;;;;;;;2.09;90.62;96916.68;1729164;81;21108;-64
2020/12/29 14:32:23;;;;;;;10.43;5.72;;;;;;;2.04;90.60;96916.11;1740739;80;21025;-64
2020/12/29 14:34:50;;;;;;;8.53;5.78;;;;;;;1.98;90.62;96925.83;1734890;80;20987;-65
2020/12/29 14:37:17;;;;;;;7.00;4.80;;;;;;;1.95;90.57;96932.45;1730454;80;21586;-65
2020/12/29 14:39:46;;;;;;;7.45;4.70;;;;;;;1.94;90.64;96938.52;1730357;81;21925;-65
2020/12/29 14:42:19;;;;;;;5.75;4.00;;;;;;;1.92;90.69;96941.62;1728295;81;21046;-65
2020/12/29 14:44:47;;;;;;;4.78;3.52;;;;;;;1.91;90.62;96942.56;1744636;80;21570;-65
2020/12/29 14:47:14;;;;;;;5.47;3.95;;;;;;;1.89;90.63;96944.37;1727660;81;21095;-65
2020/12/29 14:49:41;;;;;;;5.35;4.40;;;;;;;1.86;90.65;96947.13;1730176;80;21298;-65
2020/12/29 14:52:08;;;;;;;6.75;4.92;;;;;;;1.86;90.67;96952.27;1729575;81;22766;-65
2020/12/29 14:54:39;;;;;;;7.28;4.67;;;;;;;1.86;90.70;96957.42;1736772;81;21544;-65
2020/12/29 14:57:06;;;;;;;12.70;6.58;;;;;;;1.89;90.70;96962.85;1734217;80;21642;-65
2020/12/29 14:59:34;;;;;;;8.15;5.70;;;;;;;1.88;90.67;96962.49;1732573;80;21143;-65
2020/12/29 15:02:01;;;;;;;12.50;7.70;;;;;;;1.87;90.69;96969.36;1745214;80;21146;-65
2020/12/29 15:04:28;;;;;;;9.08;7.17;;;;;;;1.86;90.69;96970.28;1738052;80;21207;-65
2020/12/29 15:06:58;;;;;;;10.15;7.60;;;;;;;1.85;90.74;96968.64;1736796;80;21163;-65
2020/12/29 15:09:25;;;;;;;12.18;8.73;;;;;;;1.86;90.65;96972.86;1733409;80;21471;-65
2020/12/29 15:11:52;;;;;;;14.45;10.10;;;;;;;1.83;90.60;96980.75;1738503;80;20980;-65
2020/12/29 15:14:19;;;;;;;15.98;9.95;;;;;;;1.83;90.71;96988.47;1729913;80;21618;-65
2020/12/29 15:16:46;;;;;;;14.83;10.55;;;;;;;1.85;90.79;96991.80;1724627;80;21671;-65
2020/12/29 15:19:13;;;;;;;13.88;9.65;;;;;;;1.85;90.80;96989.22;1727446;80;21158;-66
2020/12/29 15:21:40;;;;;;;14.90;9.68;;;;;;;1.87;90.78;96994.27;1729587;81;26828;-65
2020/12/29 15:24:08;;;;;;;14.30;11.28;;;;;;;1.88;90.83;97004.48;1734287;80;21028;-65
2020/12/29 15:26:35;;;;;;;13.13;10.68;;;;;;;1.89;90.77;97011.28;1735804;81;21174;-65
2020/12/29 15:29:03;;;;;;;13.00;11.03;;;;;;;1.92;90.84;97013.68;1733787;80;21653;-64
2020/12/29 15:31:32;;;;;;;15.72;11.28;;;;;;;1.91;90.78;97014.61;1732605;81;21071;-65
2020/12/29 15:33:59;;;;;;;16.10;12.13;;;;;;;1.93;90.81;97007.64;1739963;81;21005;-65
2020/12/29 15:36:28;;;;;;;15.32;11.65;;;;;;;1.93;90.78;97021.80;1741766;81;21179;-65
2020/12/29 15:38:56;;;;;;;16.30;11.88;;;;;;;1.91;90.71;97017.18;1735734;81;21055;-64
2020/12/29 15:41:24;;;;;;;18.05;13.32;;;;;;;1.91;90.75;97019.75;1738150;80;21202;-65
2020/12/29 15:43:52;;;;;;;16.17;12.45;;;;;;;1.89;90.72;97034.44;1734185;81;22153;-65
2020/12/29 15:46:19;;;;;;;;;;;;;;;1.90;90.81;97034.80;1735005;81;21143;-65
2020/12/29 15:48:48;;;;;;;15.55;12.60;;;;;;;1.94;90.85;97042.73;1731685;80;20416;-65
2020/12/29 15:51:25;;;;;;;19.90;14.68;;;;;;;1.93;90.74;97041.09;1738656;80;21001;-65
2020/12/29 15:53:58;;;;;;;18.15;14.70;;;;;;;1.91;90.73;97044.20;1732690;81;22371;-65
2020/12/29 15:56:25;;;;;;;25.82;20.35;;;;;;;1.91;90.77;97047.23;1738708;81;21127;-65
2020/12/29 15:58:52;;;;;;;22.07;14.83;;;;;;;1.89;90.79;97041.33;1738609;81;21125;-65
2020/12/29 16:01:21;;;;;;;24.82;17.50;;;;;;;1.88;90.75;97050.80;1734179;80;21021;-65
2020/12/29 16:03:50;;;;;;;21.37;17.00;;;;;;;1.87;90.71;97063.73;1730790;80;21570;-65
2020/12/29 16:06:17;;;;;;;22.27;15.83;;;;;;;1.85;90.68;97068.98;1734515;81;22283;-65
2020/12/29 16:08:45;;;;;;;18.48;14.05;;;;;;;1.83;90.70;97077.23;1735918;80;21095;-66
2020/12/29 16:11:12;;;;;;;17.67;13.95;;;;;;;1.85;90.76;97076.70;1736976;80;21095;-66
2020/12/29 16:13:40;;;;;;;19.40;12.55;;;;;;;1.86;90.75;97093.79;1739356;80;21132;-65
2020/12/29 16:16:09;;;;;;;17.55;12.30;;;;;;;1.85;90.68;97092.57;1745606;80;21018;-66
2020/12/29 16:18:40;;;;;;;14.93;11.10;;;;;;;1.83;90.63;97093.95;1734548;80;21898;-65
2020/12/29 16:21:07;;;;;;;16.75;12.13;;;;;;;1.84;90.67;97097.36;1737603;80;21799;-65
2020/12/29 16:23:35;;;;;;;17.10;11.88;;;;;;;1.82;90.71;97110.31;1731020;81;21100;-66
2020/12/29 16:26:06;;;;;;;12.85;10.53;;;;;;;1.82;90.65;97109.03;1725905;81;21622;-64
2020/12/29 16:28:34;;;;;;;16.23;11.48;;;;;;;1.85;90.71;97115.30;1726358;81;21009;-65
2020/12/29 16:31:01;;;;;;;15.03;11.40;;;;;;;1.86;90.71;97122.09;1730440;81;21275;-65
2020/12/29 16:33:32;;;;;;;18.40;12.50;;;;;;;1.86;90.68;97123.84;1735870;81;21667;-65
2020/12/29 16:36:02;;;;;;;16.30;11.80;;;;;;;1.86;90.70;97122.09;1730016;80;21107;-64
2020/12/29 16:38:31;;;;;;;21.17;14.10;;;;;;;1.87;90.60;97128.89;1729645;80;21100;-65
2020/12/29 16:40:59;;;;;;;16.55;12.70;;;;;;;1.85;90.55;97138.45;1733891;80;21536;-65
2020/12/29 16:43:27;;;;;;;16.27;10.93;;;;;;;1.82;90.51;97138.62;1728787;80;21224;-66
2020/12/29 16:45:55;;;;;;;16.30;10.03;;;;;;;1.83;90.59;97142.02;1727091;81;21669;-66
2020/12/29 16:48:23;;;;;;;15.45;11.03;;;;;;;1.85;90.60;97146.60;1736726;81;21057;-65
2020/12/29 16:50:50;;;;;;;17.30;11.80;;;;;;;1.84;90.57;97154.78;1730606;81;21199;-65
2020/12/29 16:53:18;;;;;;;14.60;11.30;;;;;;;1.82;90.46;97166.92;1732465;81;21238;-66
2020/12/29 16:55:46;;;;;;;17.15;10.65;;;;;;;1.80;90.48;97171.31;1733621;81;21477;-66
2020/12/29 16:58:15;;;;;;;16.20;11.45;;;;;;;1.77;90.44;97182.59;1727552;81;21017;-66
2020/12/29 17:00:42;;;;;;;18.87;12.68;;;;;;;1.76;90.45;97180.08;1725674;81;21001;-65
2020/12/29 17:03:09;;;;;;;14.63;12.15;;;;;;;1.76;90.48;97177.51;1736790;80;21037;-65
2020/12/29 17:05:40;;;;;;;17.27;12.85;;;;;;;1.76;90.54;97181.37;1729230;80;21214;-65
2020/12/29 17:08:08;;;;;;;18.73;12.70;;;;;;;1.75;90.47;97201.59;1732582;80;21216;-65
2020/12/29 17:10:37;;;;;;;17.00;12.30;;;;;;;1.74;90.49;97189.64;1728282;81;20965;-65
2020/12/29 17:13:04;;;;;;;19.42;14.13;;;;;;;1.74;90.47;97199.94;1731130;80;21135;-65
2020/12/29 17:15:31;;;;;;;17.20;12.55;;;;;;;1.74;90.49;97199.94;1741474;81;21565;-65
2020/12/29 17:17:58;;;;;;;17.95;11.35;;;;;;;1.71;90.38;97202.64;1733516;80;21242;-65
2020/12/29 17:20:25;;;;;;;15.20;11.60;;;;;;;1.68;90.33;97213.09;1725444;80;21359;-65
2020/12/29 17:22:52;;;;;;;19.90;13.53;;;;;;;1.64;90.35;97214.17;1730844;80;21048;-65
2020/12/29 17:25:21;;;;;;;17.77;12.28;;;;;;;1.61;90.32;97217.73;1744298;80;21466;-65
2020/12/29 17:27:52;;;;;;;21.97;15.83;;;;;;;1.60;90.32;97228.08;1735227;80;21640;-64
2020/12/29 17:30:20;;;;;;;26.33;16.80;;;;;;;1.56;90.28;97233.38;1741374;80;21815;-65
2020/12/29 17:32:47;;;;;;;;;;;;;;;1.52;90.21;97239.61;1741492;80;21580;-65
2020/12/29 17:35:17;;;;;;;23.20;14.18;;;;;;;1.46;90.13;97245.06;1734371;80;20783;-65
2020/12/29 17:37:46;;;;;;;22.95;14.78;;;;;;;1.38;90.14;97249.76;1732705;80;21617;-65
2020/12/29 17:40:23;;;;;;;17.98;12.75;;;;;;;1.32;90.14;97257.78;1731198;81;21060;-65
2020/12/29 17:42:52;;;;;;;21.35;14.83;;;;;;;1.29;90.19;97263.08;1731303;81;21193;-66
2020/12/29 17:45:22;;;;;;;32.90;19.25;;;;;;;1.23;90.24;97264.20;1732651;81;21342;-65
2020/12/29 17:47:49;;;;;;;;;;;;;;;1.21;90.31;97263.44;1734534;81;21614;-65
2020/12/29 17:50:18;;;;;;;25.52;14.38;;;;;;;1.20;90.26;97275.06;1733903;81;20471;-65
2020/12/29 17:52:48;;;;;;;26.80;15.93;;;;;;;1.20;90.29;97289.20;1729562;81;21573;-65
2020/12/29 17:55:18;;;;;;;23.22;13.90;;;;;;;1.16;90.26;97292.84;1737623;81;21017;-65
2020/12/29 17:57:47;;;;;;;30.15;17.05;;;;;;;1.14;90.29;97297.22;1732010;81;22154;-65
2020/12/29 18:00:14;;;;;;;23.52;14.83;;;;;;;1.09;90.19;97293.57;1733813;81;20946;-65
2020/12/29 18:02:41;;;;;;;19.60;12.07;;;;;;;1.04;90.25;97295.09;1731760;80;21211;-64
2020/12/29 18:05:10;;;;;;;16.52;11.08;;;;;;;1.02;90.23;97302.04;1732421;80;21743;-65
2020/12/29 18:07:37;;;;;;;16.17;11.08;;;;;;;0.99;90.22;97302.19;1732861;80;21186;-65
2020/12/29 18:10:04;;;;;;;15.20;11.35;;;;;;;0.95;90.19;97316.06;1735477;80;21601;-64
2020/12/29 18:12:31;;;;;;;14.38;10.40;;;;;;;0.89;90.14;97321.50;1739364;81;21202;-64
2020/12/29 18:14:59;;;;;;;17.62;11.93;;;;;;;0.85;90.16;97337.97;1736155;81;21252;-65
2020/12/29 18:17:29;;;;;;;15.55;11.93;;;;;;;0.82;90.13;97341.52;1734899;81;20992;-65
2020/12/29 18:19:57;;;;;;;17.37;10.88;;;;;;;0.80;90.18;97345.05;1736340;80;21238;-66
2020/12/29 18:22:25;;;;;;;14.40;10.63;;;;;;;0.75;90.15;97341.86;1730722;80;21315;-65
2020/12/29 18:24:54;;;;;;;14.20;9.88;;;;;;;0.72;90.22;97353.55;1723344;81;20949;-65
2020/12/29 18:27:22;;;;;;;14.38;10.88;;;;;;;0.70;90.17;97345.08;1742311;81;21144;-64
2020/12/29 18:29:54;;;;;;;14.70;10.65;;;;;;;0.64;90.17;97354.75;1739854;81;21266;-65
2020/12/29 18:32:34;;;;;;;16.48;10.63;;;;;;;0.62;90.22;97355.27;1741756;81;21601;-66
2020/12/29 18:35:01;;;;;;;16.37;11.68;;;;;;;0.59;90.24;97363.11;1742348;81;21664;-65
2020/12/29 18:37:30;;;;;;;14.93;11.30;;;;;;;0.57;90.29;97372.61;1736845;81;21197;-65
2020/12/29 18:40:02;;;;;;;17.48;11.70;;;;;;;0.55;90.25;97369.27;1735344;81;21680;-66
2020/12/29 18:42:37;;;;;;;17.25;12.15;;;;;;;0.52;90.23;97371.97;1741058;81;21640;-66
2020/12/29 18:45:26;;;;;;;16.67;11.20;;;;;;;0.49;90.32;97374.68;1738814;81;21585;-66
2020/12/29 18:47:58;;;;;;;22.20;13.30;;;;;;;0.49;90.40;97387.52;1741457;81;21248;-65
2020/12/29 18:50:28;;;;;;;22.48;14.30;;;;;;;0.49;90.41;97389.26;1736264;81;21213;-65
2020/12/29 18:53:04;;;;;;;24.07;15.40;;;;;;;0.50;90.49;97390.45;1732926;81;21198;-66
2020/12/29 18:55:36;;;;;;;24.12;15.38;;;;;;;0.53;90.51;97395.91;1732392;81;21029;-66
2020/12/29 18:58:09;;;;;;;23.90;14.60;;;;;;;0.55;90.56;97400.08;1730696;81;21243;-66
2020/12/29 19:00:39;;;;;;;23.40;14.23;;;;;;;0.59;90.60;97400.34;1733834;81;22578;-65
2020/12/29 19:03:09;;;;;;;23.42;15.65;;;;;;;0.63;90.58;97401.03;1732381;81;21068;-66
2020/12/29 19:05:48;;;;;;;20.08;14.40;;;;;;;0.68;90.58;97408.55;1733081;81;21008;-66
2020/12/29 19:08:19;;;;;;;24.15;15.15;;;;;;;0.71;90.58;97408.41;1729552;81;21029;-65
2020/12/29 19:10:47;;;;;;;25.23;16.95;;;;;;;0.76;90.59;97412.89;1734604;81;21624;-65
2020/12/29 19:13:21;;;;;;;29.63;17.48;;;;;;;0.79;90.57;97423.03;1733568;81;21262;-66
2020/12/29 19:15:50;;;;;;;24.30;15.38;;;;;;;0.83;90.61;97436.11;1726303;81;21139;-66
2020/12/29 19:18:19;;;;;;;22.70;14.80;;;;;;;0.85;90.54;97433.85;1726749;80;20965;-66
2020/12/29 19:20:49;;;;;;;28.27;16.87;;;;;;;0.87;90.52;97441.50;1725655;81;21163;-66
2020/12/29 19:23:18;;;;;;;25.82;16.15;;;;;;;0.91;90.53;97441.73;1726955;81;21558;-65
2020/12/29 19:25:46;;;;;;;24.55;14.70;;;;;;;0.94;90.54;97448.02;1730452;81;21201;-66
2020/12/29 19:28:13;;;;;;;19.82;14.73;;;;;;;0.99;90.52;97453.80;1732533;80;21641;-66
2020/12/29 19:30:40;;;;;;;26.65;15.93;;;;;;;1.00;90.50;97456.73;1669630;84;21081;-66
2020/12/29 19:33:11;;;;;;;22.87;15.38;;;;;;;1.04;90.52;97457.00;1673296;84;21685;-65
2020/12/29 19:35:40;;;;;;;25.05;14.53;;;;;;;1.07;90.55;97467.13;1675381;84;21243;-66
2020/12/29 19:38:11;;;;;;;26.10;15.63;;;;;;;1.10;90.50;97464.42;1673544;84;21920;-66
2020/12/29 19:40:41;;;;;;;20.68;14.50;;;;;;;1.15;90.54;97463.36;1672953;84;21188;-65
2020/12/29 19:43:08;;;;;;;21.27;14.95;;;;;;;1.19;90.51;97467.48;1679203;84;21223;-66
2020/12/29 19:45:44;;;;;;;21.23;13.28;;;;;;;1.23;90.54;97476.70;1674278;84;21224;-65
2020/12/29 19:48:19;;;;;;;19.50;13.35;;;;;;;1.24;90.47;97475.83;1673173;84;21183;-66
2020/12/29 19:50:56;;;;;;;21.20;14.30;;;;;;;1.26;90.46;97481.70;1679494;84;21214;-65
2020/12/29 19:53:29;;;;;;;19.60;14.53;;;;;;;1.29;90.48;97484.16;1682978;84;21058;-66
2020/12/29 19:56:05;;;;;;;21.12;14.43;;;;;;;1.31;90.47;97487.48;1684694;84;21639;-66
2020/12/29 19:58:35;;;;;;;22.58;13.80;;;;;;;1.33;90.46;97494.68;1678407;83;21082;-68
2020/12/29 20:01:14;;;;;;;19.45;13.28;;;;;;;1.38;90.53;97496.59;1681039;84;21169;-65
2020/12/29 20:03:54;;;;;;;17.75;12.25;;;;;;;1.41;90.49;97496.45;1679059;84;21294;-66
2020/12/29 20:06:26;;;;;;;20.73;13.63;;;;;;;1.47;90.55;97498.73;1678934;84;21196;-66
2020/12/29 20:08:56;;;;;;;17.82;11.85;;;;;;;1.49;90.49;97507.22;1675099;84;21443;-66
2020/12/29 20:11:28;;;;;;;19.48;12.00;;;;;;;1.52;90.42;97509.65;1673618;84;21132;-66
2020/12/29 20:13:56;;;;;;;16.85;12.23;;;;;;;1.52;90.45;97508.82;1677995;84;21172;-66
2020/12/29 20:16:25;;;;;;;15.68;11.75;;;;;;;1.56;90.47;97516.30;1674946;84;22139;-67
2020/12/29 20:18:59;;;;;;;20.52;13.48;;;;;;;1.59;90.37;97520.47;1682016;84;21208;-66
2020/12/29 20:21:27;;;;;;;17.05;11.90;;;;;;;1.62;90.37;97519.50;1677255;84;21937;-67
2020/12/29 20:23:56;;;;;;;17.27;11.95;;;;;;;1.63;90.32;97521.19;1679415;84;21208;-65
2020/12/29 20:26:50;;;;;;;15.32;11.03;;;;;;;1.64;90.31;97524.96;1676735;83;21253;-66
2020/12/29 20:29:23;;;;;;;20.57;12.85;;;;;;;1.64;90.25;97530.56;1731808;80;21198;-66
2020/12/29 20:31:56;;;;;;;18.87;12.82;;;;;;;1.65;90.28;97538.65;1734408;80;21279;-65
2020/12/29 20:34:23;;;;;;;22.48;13.05;;;;;;;1.66;90.32;97553.20;1719454;79;21184;-66
2020/12/29 20:36:54;;;;;;;18.00;12.40;;;;;;;1.69;90.28;97549.20;1767765;78;21243;-66
2020/12/29 20:39:22;;;;;;;20.02;12.60;;;;;;;1.68;90.24;97560.38;1774136;78;21132;-65
2020/12/29 20:41:51;;;;;;;22.50;14.53;;;;;;;1.67;90.17;97558.72;1764168;79;21252;-67
2020/12/29 20:44:24;;;;;;;20.35;12.90;;;;;;;1.66;90.18;97562.20;1771284;78;21749;-66
2020/12/29 20:46:53;;;;;;;18.30;13.78;;;;;;;1.65;90.17;97568.23;1764802;78;21080;-66
2020/12/29 20:49:22;;;;;;;20.70;14.73;;;;;;;1.65;90.26;97568.23;1768867;78;21141;-65
2020/12/29 20:51:50;;;;;;;19.50;13.98;;;;;;;1.65;90.17;97575.95;1768695;79;21903;-65
2020/12/29 20:57:14;;;;;;;22.70;15.00;;;;;;;1.68;90.20;97584.81;1846629;76;22723;-65
2020/12/29 20:59:42;;;;;;;25.97;16.32;;;;;;;1.64;90.19;97589.73;1813250;78;21558;-65
2020/12/29 21:02:17;;;;;;;24.23;16.35;;;;;;;1.63;90.18;97590.64;1812933;78;21129;-66
2020/12/29 21:04:55;;;;;;;23.52;16.37;;;;;;;1.64;90.17;97597.45;1810220;78;21570;-65
2020/12/29 21:07:30;;;;;;;25.17;15.03;;;;;;;1.64;90.21;97605.16;1817881;78;20986;-65
2020/12/29 21:10:08;;;;;;;22.22;15.10;;;;;;;1.63;90.15;97600.94;1818064;78;21107;-66
2020/12/29 21:12:39;;;;;;;24.85;15.65;;;;;;;1.60;90.06;97608.76;1820403;78;21582;-65
2020/12/29 21:15:06;;;;;;;23.65;15.53;;;;;;;1.52;89.92;97607.37;1817804;78;22154;-66
2020/12/29 21:17:35;;;;;;;23.42;15.70;;;;;;;1.47;89.94;97611.89;1815982;78;21004;-65
2020/12/29 21:20:03;;;;;;;25.12;16.25;;;;;;;1.41;89.97;97616.02;1816674;78;21745;-65
2020/12/29 21:22:30;;;;;;;22.40;15.15;;;;;;;1.36;89.96;97624.38;1818155;78;20949;-66
2020/12/29 21:24:58;;;;;;;23.35;16.07;;;;;;;1.30;90.03;97626.77;1813482;78;21625;-65
2020/12/29 21:27:26;;;;;;;26.48;16.73;;;;;;;1.24;89.98;97630.07;1807675;78;22743;-65
2020/12/29 21:29:53;;;;;;;26.65;16.80;;;;;;;1.20;90.03;97632.37;1802884;78;26954;-65
2020/12/29 21:32:19;;;;;;;23.65;16.87;;;;;;;1.14;90.05;97639.06;1820522;78;21258;-65
2020/12/29 21:34:46;;;;;;;25.02;18.15;;;;;;;1.08;90.09;97643.56;1815856;78;21215;-65
2020/12/29 21:37:15;;;;;;;23.87;16.75;;;;;;;1.02;90.11;97647.67;1813702;78;21223;-66
2020/12/29 21:39:42;;;;;;;27.17;17.57;;;;;;;0.98;90.20;97643.58;1809893;77;22060;-65
2020/12/29 21:42:09;;;;;;;24.82;16.48;;;;;;;0.97;90.35;97652.17;1811810;78;21226;-65
2020/12/29 21:44:39;;;;;;;27.07;17.40;;;;;;;1.01;90.54;97655.02;1806646;78;21112;-65
2020/12/29 21:47:06;;;;;;;27.45;18.05;;;;;;;1.05;90.61;97659.11;1809659;77;21131;-65
2020/12/29 21:49:33;;;;;;;26.57;17.98;;;;;;;1.13;90.68;97657.97;1815242;78;21059;-65
2020/12/29 21:52:00;;;;;;;29.20;19.35;;;;;;;1.17;90.64;97662.89;1810701;77;22361;-65
2020/12/29 21:54:28;;;;;;;27.13;17.27;;;;;;;1.22;90.62;97663.54;1811697;78;21052;-65
2020/12/29 21:56:55;;;;;;;26.70;18.00;;;;;;;1.27;90.60;97663.36;1804815;77;21063;-65
2020/12/29 21:59:23;;;;;;;28.30;17.95;;;;;;;1.31;90.56;97667.45;1808882;78;21024;-65
2020/12/29 22:01:51;;;;;;;25.37;16.55;;;;;;;1.35;90.57;97669.01;1821610;78;21021;-65
2020/12/29 22:04:18;;;;;;;;;;;;;;;1.39;90.57;97675.67;1821688;78;21791;-66
2020/12/29 22:06:45;;;;;;;28.15;17.07;;;;;;;1.42;90.52;97675.55;1820553;78;20109;-64
2020/12/29 22:09:12;;;;;;;22.60;15.70;;;;;;;1.46;90.58;97684.81;1812629;78;21052;-65
2020/12/29 22:11:41;;;;;;;27.10;17.02;;;;;;;1.50;90.57;97685.05;1817538;78;20997;-65
2020/12/29 22:14:11;;;;;;;22.27;16.25;;;;;;;1.53;90.57;97686.20;1821192;78;20922;-65
2020/12/29 22:16:42;;;;;;;26.52;16.93;;;;;;;1.56;90.50;97688.64;1806868;78;21115;-65
2020/12/29 22:19:09;;;;;;;25.88;15.98;;;;;;;1.61;90.48;97699.19;1818460;78;21052;-65
2020/12/29 22:21:36;;;;;;;21.27;14.60;;;;;;;1.63;90.49;97701.25;1820036;78;20989;-64
2020/12/29 22:24:03;;;;;;;21.75;15.32;;;;;;;1.65;90.49;97695.57;1810186;78;20993;-64
2020/12/29 22:26:30;;;;;;;24.50;15.53;;;;;;;1.68;90.52;97699.30;1810821;78;21008;-65
2020/12/29 22:29:01;;;;;;;21.77;14.70;;;;;;;1.70;90.47;97703.93;1816143;78;21224;-65
2020/12/29 22:31:27;;;;;;;18.95;13.80;;;;;;;1.73;90.47;97710.23;1799133;78;21126;-65
2020/12/29 22:33:56;;;;;;;21.48;13.88;;;;;;;1.76;90.49;97711.38;1810068;78;20946;-64
2020/12/29 22:36:23;;;;;;;22.67;14.60;;;;;;;1.78;90.48;97716.02;1820669;78;20978;-65
2020/12/29 22:38:53;;;;;;;20.77;13.22;;;;;;;1.79;90.49;97710.81;1816580;78;22510;-65
2020/12/29 22:41:20;;;;;;;18.85;13.72;;;;;;;1.82;90.49;97717.56;1825977;78;21197;-65
2020/12/29 22:43:49;;;;;;;17.95;13.48;;;;;;;1.83;90.50;97715.82;1809715;78;21061;-65
2020/12/29 22:46:20;;;;;;;23.07;14.83;;;;;;;1.83;90.44;97721.80;1817105;78;20927;-65
2020/12/29 22:48:48;;;;;;;23.77;14.95;;;;;;;1.85;90.48;97726.44;1804233;78;21605;-65
2020/12/29 22:53:57;;;;;;;21.55;13.83;;;;;;;1.93;90.55;97730.80;1875442;76;22647;-65
2020/12/29 22:56:26;;;;;;;21.93;14.00;;;;;;;1.93;90.53;97725.65;1842917;76;21000;-65
2020/12/29 22:58:54;;;;;;;23.60;15.05;;;;;;;1.96;90.49;97733.23;1834828;76;22862;-65
2020/12/29 23:01:37;;;;;;;22.13;14.58;;;;;;;1.98;90.50;97731.40;1845291;77;20989;-65
2020/12/29 23:04:06;;;;;;;19.87;14.28;;;;;;;2.03;90.46;97744.53;1840108;77;21041;-66
2020/12/29 23:06:51;;;;;;;20.32;13.83;;;;;;;2.05;90.53;97733.73;1842468;76;20988;-66
2020/12/29 23:09:19;;;;;;;17.82;12.95;;;;;;;2.09;90.52;97740.39;1838244;77;21009;-66
2020/12/29 23:11:53;;;;;;;18.80;13.50;;;;;;;2.12;90.47;97736.39;1846997;77;21402;-66
2020/12/29 23:14:17;;;;;;;18.17;12.95;;;;;;;2.14;90.43;97748.75;1850572;76;20937;-66
2020/12/29 23:16:44;;;;;;;19.67;13.05;;;;;;;2.15;90.42;97755.56;1843997;77;21004;-66
2020/12/29 23:19:11;;;;;;;17.77;12.80;;;;;;;2.16;90.35;97763.69;1840980;76;21036;-66
2020/12/29 23:21:38;;;;;;;;;;;;;;;2.18;90.54;97768.30;1845472;77;21562;-66
2020/12/29 23:24:05;;;;;;;18.35;13.18;;;;;;;2.21;90.47;97773.30;1828192;77;21844;-66
2020/12/29 23:26:32;;;;;;;17.95;12.65;;;;;;;2.20;90.43;97774.22;1828318;77;21776;-66
2020/12/29 23:29:01;;;;;;;17.80;13.13;;;;;;;2.19;90.58;97775.14;1837982;76;21035;-66
2020/12/29 23:31:28;;;;;;;22.15;13.88;;;;;;;2.19;90.58;97775.14;1829429;77;20914;-66
2020/12/29 23:33:56;;;;;;;17.70;13.32;;;;;;;2.22;90.39;97772.42;1830511;77;21450;-66
2020/12/29 23:36:27;;;;;;;20.85;13.53;;;;;;;2.21;90.39;97779.31;1841587;76;21199;-66
2020/12/29 23:38:54;;;;;;;18.70;12.30;;;;;;;2.21;90.37;97787.47;1830526;77;21001;-66
2020/12/29 23:41:24;;;;;;;17.57;13.65;;;;;;;2.21;90.34;97783.61;1837273;77;21035;-66
2020/12/29 23:43:50;;;;;;;16.93;12.33;;;;;;;2.22;90.39;97782.72;1848468;77;20992;-65
2020/12/29 23:46:17;;;;;;;21.37;13.15;;;;;;;2.24;90.42;97780.89;1825711;76;20987;-66
2020/12/29 23:48:46;;;;;;;18.12;12.07;;;;;;;2.25;90.39;97785.16;1829384;77;22379;-66
2020/12/29 23:51:16;;;;;;;16.87;11.70;;;;;;;2.27;90.35;97791.08;1842330;76;21071;-66
2020/12/29 23:53:43;;;;;;;15.85;11.15;;;;;;;2.29;90.39;97789.25;1804261;77;21234;-66
2020/12/29 23:56:10;;;;;;;16.05;12.28;;;;;;;2.28;90.32;97781.16;1789065;79;21157;-66
2020/12/29 23:58:37;;;;;;;16.80;11.85;;;;;;;2.28;90.33;97787.59;1793652;78;21025;-66
